Valtellina — ICKF — position and weather

sailwx.info

Track history (hours):
 
Tides and Currents Weather Stations Pressure Air Temp Water Temp Dewpoint Dewpoint Depression Visibility Wind Speed Wind Dir Waves Ship Positions

Valtellina

Last reported at 2016-Jul-29 11:32 UTC. Time now 2016-Jul-29 12:07 UTC.
Position N 39°14' E 009°50'.

Length 184 m; draft 7.5 m.

Type: Ship (hazmat cat C). MMSI: 247243900.

Date/timePositionNaut miles runAvg speedWind from/ knotsBaromVisibWave heightAir tempDewpointWater temp
2016-Jul-29 11:32N 39°14' E 009°50'137 8.4
2016-Jul-28 19:11N 41°08' E 011°30'32 2.2
2016-Jul-28 04:32N 41°36' E 011°51'0 0.3
2016-Jul-28 03:33N 41°35' E 011°51'0 0.4
2016-Jul-28 02:33N 41°35' E 011°52'1 0.4
2016-Jul-28 00:22N 41°35' E 011°53'1 0.4
2016-Jul-27 23:05N 41°35' E 011°54'0 0.3
2016-Jul-27 22:32N 41°36' E 011°54'1 0.3
2016-Jul-27 20:11N 41°36' E 011°53'0 0.3
2016-Jul-27 19:11N 41°37' E 011°53'2 0.3
2016-Jul-27 12:33N 41°38' E 011°51'0 0.0
2016-Jul-27 11:26N 41°38' E 011°51'8 4.4
2016-Jul-27 09:32N 41°41' E 012°00'  
2016-Jul-24 13:20N 40°50' E 012°44'1012.6
2016-Jul-24 12:33N 40°42' E 012°53'2912.7
2016-Jul-24 10:15N 40°20' E 013°18'912.7
2016-Jul-24 09:33N 40°13' E 013°25'1212.2
2016-Jul-24 08:32N 40°04' E 013°37'1212.3
2016-Jul-24 07:33N 39°56' E 013°47'1212.2
2016-Jul-24 06:33N 39°46' E 013°58'1212.1
2016-Jul-24 05:33N 39°37' E 014°08'1312.3
2016-Jul-24 04:30N 39°27' E 014°19'1512.7
2016-Jul-24 03:21N 39°16' E 014°32'1112.9
2016-Jul-24 02:31N 39°08' E 014°41'1312.9
2016-Jul-24 01:30N 38°59' E 014°52'1412.6
2016-Jul-24 00:23N 38°48' E 015°04'2312.4
2016-Jul-23 22:32N 38°32' E 015°24'1212.4
2016-Jul-23 21:33N 38°23' E 015°35'9 8.7
2016-Jul-23 20:33N 38°15' E 015°38'1212.5
2016-Jul-23 19:33N 38°02' E 015°34'1312.9
2016-Jul-23 18:34N 37°50' E 015°30'1312.5
2016-Jul-23 17:33N 37°38' E 015°26'1211.7
2016-Jul-23 16:33N 37°26' E 015°23'1212.0
2016-Jul-23 15:33N 37°15' E 015°19'7 7.4
2016-Jul-23 14:33N 37°08' E 015°16'1 0.0
2016-Jul-21 21:27N 37°08' E 015°15'0 0.0
2016-Jul-21 12:24N 37°08' E 015°15'8 1.3
2016-Jul-21 06:12N 37°07' E 015°24'  
Track history (hours):
 
Tides and Currents Weather Stations Pressure Air Temp Water Temp Dewpoint Dewpoint Depression Visibility Wind Speed Wind Dir Waves Ship Positions

Valtellina

Last reported at 2016-Jul-29 11:32 UTC. Time now 2016-Jul-29 12:07 UTC.
Position N 39°14' E 009°50'.

Length 184 m; draft 7.5 m.

Type: Ship (hazmat cat C). MMSI: 247243900.

Date/timePositionNaut miles runAvg speedWind from/ knotsBaromVisibWave heightAir tempDewpointWater temp
2016-Jul-29 11:32N 39°14' E 009°50'137 8.4
2016-Jul-28 19:11N 41°08' E 011°30'32 2.2
2016-Jul-28 04:32N 41°36' E 011°51'0 0.3
2016-Jul-28 03:33N 41°35' E 011°51'0 0.4
2016-Jul-28 02:33N 41°35' E 011°52'1 0.4
2016-Jul-28 00:22N 41°35' E 011°53'1 0.4
2016-Jul-27 23:05N 41°35' E 011°54'0 0.3
2016-Jul-27 22:32N 41°36' E 011°54'1 0.3
2016-Jul-27 20:11N 41°36' E 011°53'0 0.3
2016-Jul-27 19:11N 41°37' E 011°53'2 0.3
2016-Jul-27 12:33N 41°38' E 011°51'0 0.0
2016-Jul-27 11:26N 41°38' E 011°51'8 4.4
2016-Jul-27 09:32N 41°41' E 012°00'  
2016-Jul-24 13:20N 40°50' E 012°44'1012.6
2016-Jul-24 12:33N 40°42' E 012°53'2912.7
2016-Jul-24 10:15N 40°20' E 013°18'912.7
2016-Jul-24 09:33N 40°13' E 013°25'1212.2
2016-Jul-24 08:32N 40°04' E 013°37'1212.3
2016-Jul-24 07:33N 39°56' E 013°47'1212.2
2016-Jul-24 06:33N 39°46' E 013°58'1212.1
2016-Jul-24 05:33N 39°37' E 014°08'1312.3
2016-Jul-24 04:30N 39°27' E 014°19'1512.7
2016-Jul-24 03:21N 39°16' E 014°32'1112.9
2016-Jul-24 02:31N 39°08' E 014°41'1312.9
2016-Jul-24 01:30N 38°59' E 014°52'1412.6
2016-Jul-24 00:23N 38°48' E 015°04'2312.4
2016-Jul-23 22:32N 38°32' E 015°24'1212.4
2016-Jul-23 21:33N 38°23' E 015°35'9 8.7
2016-Jul-23 20:33N 38°15' E 015°38'1212.5
2016-Jul-23 19:33N 38°02' E 015°34'1312.9
2016-Jul-23 18:34N 37°50' E 015°30'1312.5
2016-Jul-23 17:33N 37°38' E 015°26'1211.7
2016-Jul-23 16:33N 37°26' E 015°23'1212.0
2016-Jul-23 15:33N 37°15' E 015°19'7 7.4
2016-Jul-23 14:33N 37°08' E 015°16'1 0.0
2016-Jul-21 21:27N 37°08' E 015°15'0 0.0
2016-Jul-21 12:24N 37°08' E 015°15'8 1.3
2016-Jul-21 06:12N 37°07' E 015°24'  

Dump ship's entire track history